Time;durP1;ratioP1;P1;durP2;ratioP2;P2;SDS_P1;SDS_P2;PMS_P1;PMS_P2;Temp;Humidity;BMP_temperature;BMP_pressure;BME280_temperature;BME280_humidity;BME280_pressure;Samples;Min_cycle;Max_cycle;Signal;HPM_P1;HPM_P2
2023/06/24 03:17:41;;;;;;;6.47;4.03;;;16.80;92.30;;;;;;6217157;22;94733;-74
2023/06/24 03:20:08;;;;;;;8.40;4.22;;;16.80;92.30;;;;;;6247040;22;93341;-71
2023/06/24 03:22:34;;;;;;;10.30;4.15;;;16.90;92.20;;;;;;6247242;22;92412;-71
2023/06/24 03:25:00;;;;;;;7.63;3.97;;;16.90;91.80;;;;;;6248197;22;91662;-71
2023/06/24 03:27:25;;;;;;;8.05;3.88;;;17.00;92.00;;;;;;6246438;22;92442;-71
2023/06/24 03:29:51;;;;;;;7.57;3.85;;;17.00;91.60;;;;;;6246508;22;92511;-70
2023/06/24 03:32:16;;;;;;;10.07;4.63;;;17.00;91.60;;;;;;6246244;22;93193;-71
2023/06/24 03:34:42;;;;;;;7.28;4.13;;;17.00;91.70;;;;;;6247107;22;92430;-74
2023/06/24 03:37:08;;;;;;;9.43;4.60;;;17.00;91.40;;;;;;6246426;22;93155;-71
2023/06/24 03:39:34;;;;;;;7.32;3.90;;;17.00;91.70;;;;;;6246882;22;92663;-72
2023/06/24 03:42:00;;;;;;;7.22;4.30;;;17.00;92.40;;;;;;6246892;22;92086;-73
2023/06/24 03:44:26;;;;;;;5.90;3.80;;;17.00;92.00;;;;;;6247482;22;92039;-73
2023/06/24 03:46:52;;;;;;;8.98;4.70;;;17.10;91.70;;;;;;6247108;22;92443;-72
2023/06/24 03:49:18;;;;;;;9.13;4.40;;;17.20;91.70;;;;;;6246666;22;92820;-74
2023/06/24 03:51:43;;;;;;;10.88;4.55;;;17.20;91.70;;;;;;6220327;22;92362;-71
2023/06/24 03:54:10;;;;;;;7.63;4.30;;;17.30;91.60;;;;;;6246952;22;92257;-74
2023/06/24 03:56:35;;;;;;;7.10;3.92;;;17.30;91.50;;;;;;6246087;22;94232;-71
2023/06/24 03:59:01;;;;;;;8.07;4.18;;;17.30;91.30;;;;;;6246955;22;94136;-71
2023/06/24 04:01:31;;;;;;;6.78;4.30;;;17.40;91.30;;;;;;6219313;22;92364;-71
2023/06/24 04:03:57;;;;;;;8.07;4.07;;;17.40;91.00;;;;;;6246338;22;92329;-73
2023/06/24 04:06:23;;;;;;;6.78;3.65;;;17.50;90.90;;;;;;6246968;22;92963;-73
2023/06/24 04:08:49;;;;;;;6.35;4.10;;;17.50;90.80;;;;;;6245972;22;92397;-74
2023/06/24 04:11:14;;;;;;;6.95;3.42;;;17.60;91.00;;;;;;6247089;22;92205;-72
2023/06/24 04:13:40;;;;;;;9.13;4.38;;;17.60;90.90;;;;;;6247526;22;91694;-71
2023/06/24 04:16:06;;;;;;;9.07;3.88;;;17.60;91.00;;;;;;6244554;22;93626;-74
2023/06/24 04:18:31;;;;;;;8.60;4.93;;;17.70;91.10;;;;;;6215887;22;93074;-71
2023/06/24 04:20:57;;;;;;;6.45;4.10;;;17.60;90.80;;;;;;6215743;22;93265;-72
2023/06/24 04:23:23;;;;;;;10.07;4.43;;;17.60;91.40;;;;;;6215942;22;92167;-70
2023/06/24 04:25:49;;;;;;;11.05;4.25;;;17.70;91.50;;;;;;6215847;22;93197;-71
2023/06/24 04:28:14;;;;;;;7.93;4.47;;;17.70;90.80;;;;;;6215556;22;92525;-70
2023/06/24 04:30:40;;;;;;;7.55;3.88;;;17.80;90.50;;;;;;6216478;22;92322;-72
2023/06/24 04:33:06;;;;;;;6.30;3.40;;;17.80;90.40;;;;;;6216104;22;92495;-72
2023/06/24 04:35:32;;;;;;;8.38;4.15;;;17.90;90.50;;;;;;6214614;22;93065;-72
2023/06/24 04:37:58;;;;;;;7.25;3.97;;;18.00;90.50;;;;;;6215508;22;92324;-71
2023/06/24 04:40:24;;;;;;;7.97;3.95;;;18.10;90.00;;;;;;6215959;22;91946;-71
2023/06/24 04:42:49;;;;;;;8.98;4.43;;;18.10;89.10;;;;;;6216302;22;92548;-74
2023/06/24 04:45:15;;;;;;;8.02;4.25;;;18.20;89.30;;;;;;6215186;22;93261;-71
2023/06/24 04:47:41;;;;;;;7.05;4.28;;;18.30;89.40;;;;;;6214803;22;93254;-73
2023/06/24 04:50:09;;;;;;;6.93;4.00;;;18.40;89.50;;;;;;6216347;22;92319;-73
2023/06/24 04:52:35;;;;;;;7.65;4.30;;;18.40;89.30;;;;;;6215930;22;92571;-72
2023/06/24 04:55:01;;;;;;;8.55;4.32;;;18.50;88.50;;;;;;6215294;22;93000;-72
2023/06/24 04:57:29;;;;;;;8.90;4.32;;;18.50;86.80;;;;;;6215199;22;93233;-71
2023/06/24 04:59:55;;;;;;;8.30;3.72;;;18.50;87.20;;;;;;6215435;22;92342;-72
2023/06/24 05:02:20;;;;;;;5.85;3.55;;;18.60;86.70;;;;;;6216460;22;91763;-73
2023/06/24 05:04:46;;;;;;;8.27;4.05;;;18.50;85.70;;;;;;6215081;22;92707;-74
2023/06/24 05:07:12;;;;;;;8.13;4.22;;;18.60;85.40;;;;;;6188451;22;95994;-73
2023/06/24 05:09:37;;;;;;;9.05;4.15;;;18.70;86.00;;;;;;6188038;22;93271;-74
2023/06/24 05:12:07;;;;;;;7.07;4.25;;;18.80;86.70;;;;;;6216326;22;92370;-74
2023/06/24 05:14:36;;;;;;;;;;;18.90;86.00;;;;;;6215259;22;95399;-73
2023/06/24 05:17:03;;;;;;;5.32;3.17;;;19.10;85.50;;;;;;6216690;22;93379;-72
2023/06/24 05:19:29;;;;;;;10.25;3.30;;;19.10;85.10;;;;;;6215656;22;92191;-73
2023/06/24 05:21:54;;;;;;;7.32;3.70;;;19.30;85.80;;;;;;6216027;22;92359;-73
2023/06/24 05:24:20;;;;;;;8.07;3.40;;;19.30;84.60;;;;;;6214779;22;93514;-73
2023/06/24 05:26:49;;;;;;;9.73;3.65;;;19.40;83.00;;;;;;6215422;22;94951;-74
2023/06/24 05:29:15;;;;;;;8.63;3.63;;;19.60;82.70;;;;;;6215538;22;91919;-74
2023/06/24 05:31:41;;;;;;;9.02;3.58;;;19.70;83.50;;;;;;6215866;22;92788;-72
2023/06/24 05:34:07;;;;;;;5.68;3.65;;;19.80;81.70;;;;;;6213930;22;94520;-73
2023/06/24 05:36:32;;;;;;;6.78;3.25;;;20.00;80.50;;;;;;6215479;22;93942;-71
2023/06/24 05:38:58;;;;;;;6.53;3.40;;;20.10;80.30;;;;;;6214941;22;92496;-74
2023/06/24 05:41:24;;;;;;;6.65;3.63;;;20.20;79.30;;;;;;6215926;22;92698;-71
2023/06/24 05:44:01;;;;;;;7.10;3.63;;;20.30;79.10;;;;;;6214373;22;93269;-72
2023/06/24 05:46:26;;;;;;;9.38;3.55;;;20.40;78.80;;;;;;6187899;22;96232;-75
2023/06/24 05:48:52;;;;;;;5.45;3.30;;;20.40;78.40;;;;;;6215357;22;92359;-75
2023/06/24 05:51:18;;;;;;;5.97;3.53;;;20.40;76.60;;;;;;6215952;22;91357;-71
2023/06/24 05:53:43;;;;;;;5.78;3.30;;;20.40;77.50;;;;;;6214946;22;92607;-72
2023/06/24 05:56:09;;;;;;;5.38;3.33;;;20.40;77.60;;;;;;6214533;22;92520;-71
2023/06/24 05:58:34;;;;;;;6.15;3.25;;;20.30;76.50;;;;;;6215129;22;92924;-72
2023/06/24 06:01:01;;;;;;;6.25;3.58;;;20.20;77.20;;;;;;6214890;22;92263;-75
2023/06/24 06:03:26;;;;;;;6.28;3.22;;;20.30;77.40;;;;;;6214013;22;93177;-73
2023/06/24 06:05:52;;;;;;;7.45;3.45;;;20.40;77.00;;;;;;6213953;22;92179;-72
2023/06/24 06:08:18;;;;;;;4.00;2.33;;;20.40;76.20;;;;;;6213847;22;92507;-73
2023/06/24 06:10:43;;;;;;;4.65;2.88;;;20.40;76.90;;;;;;6215237;22;92405;-75
2023/06/24 06:13:09;;;;;;;5.97;2.97;;;20.60;76.90;;;;;;6214558;22;92584;-72
2023/06/24 06:15:35;;;;;;;7.43;3.00;;;20.70;76.70;;;;;;6215999;22;92781;-73
2023/06/24 06:18:00;;;;;;;5.20;2.83;;;20.80;75.30;;;;;;6215649;22;92769;-73
2023/06/24 06:20:26;;;;;;;5.15;3.50;;;20.90;74.80;;;;;;6216262;22;92012;-73
2023/06/24 06:22:52;;;;;;;8.23;3.10;;;20.90;75.00;;;;;;6214729;22;93652;-72
2023/06/24 06:25:17;;;;;;;9.15;3.33;;;21.20;74.10;;;;;;6215139;22;93112;-73
2023/06/24 06:27:43;;;;;;;4.95;2.80;;;21.40;73.40;;;;;;6215601;22;92355;-74
2023/06/24 06:30:09;;;;;;;5.40;3.47;;;21.70;74.10;;;;;;6216796;22;92673;-74
2023/06/24 06:32:35;;;;;;;5.63;2.80;;;21.80;74.30;;;;;;6215921;22;93805;-73
2023/06/24 06:35:00;;;;;;;7.47;3.50;;;22.10;72.90;;;;;;6215940;22;92810;-75
2023/06/24 06:37:26;;;;;;;9.68;3.20;;;22.40;72.90;;;;;;6216519;22;92566;-72
2023/06/24 06:39:52;;;;;;;5.88;3.83;;;22.80;71.00;;;;;;6217071;22;91682;-75
2023/06/24 06:42:18;;;;;;;7.68;3.92;;;23.30;70.60;;;;;;6216289;22;93655;-74
2023/06/24 06:44:43;;;;;;;7.82;3.67;;;24.10;69.10;;;;;;6215309;22;92315;-75
2023/06/24 06:47:10;;;;;;;5.90;3.78;;;24.80;66.40;;;;;;6216716;22;93743;-74
2023/06/24 06:49:36;;;;;;;8.77;3.90;;;25.50;64.70;;;;;;6216814;22;92281;-74
2023/06/24 06:52:02;;;;;;;7.95;4.28;;;26.70;61.00;;;;;;6216352;22;92573;-73
2023/06/24 06:54:28;;;;;;;4.78;3.65;;;27.10;60.90;;;;;;6215482;22;92541;-72
2023/06/24 06:56:55;;;;;;;5.43;3.40;;;27.20;57.80;;;;;;6216441;22;92662;-72
2023/06/24 06:59:21;;;;;;;4.45;2.65;;;26.70;57.90;;;;;;6216939;22;92418;-71
2023/06/24 07:01:46;;;;;;;5.10;3.05;;;25.60;57.90;;;;;;6215544;22;92124;-70
2023/06/24 07:04:12;;;;;;;5.57;3.22;;;24.80;61.50;;;;;;6189124;22;94131;-70
2023/06/24 07:06:38;;;;;;;5.57;3.03;;;24.50;62.90;;;;;;6215911;22;92618;-70
2023/06/24 07:09:03;;;;;;;7.07;3.95;;;23.90;62.80;;;;;;6216139;22;92978;-70
2023/06/24 07:11:32;;;;;;;4.55;2.58;;;23.40;63.80;;;;;;6214424;22;94418;-70
2023/06/24 07:13:58;;;;;;;8.95;3.25;;;23.30;65.50;;;;;;6212882;22;93754;-73
2023/06/24 07:16:23;;;;;;;5.07;3.03;;;23.50;64.60;;;;;;6215728;22;92655;-72
2023/06/24 07:18:49;;;;;;;6.90;2.75;;;23.80;65.10;;;;;;6216513;22;92192;-71
2023/06/24 07:21:15;;;;;;;9.07;3.05;;;23.80;65.50;;;;;;6215814;22;92660;-72
2023/06/24 07:23:41;;;;;;;4.95;2.78;;;23.80;65.50;;;;;;6188855;22;95546;-74
2023/06/24 07:26:07;;;;;;;4.72;2.90;;;23.60;65.00;;;;;;6216111;22;92265;-72
2023/06/24 07:28:33;;;;;;;4.80;2.42;;;23.60;64.50;;;;;;6217275;22;91504;-71
2023/06/24 07:30:58;;;;;;;4.03;2.70;;;23.60;64.30;;;;;;6215025;22;93564;-71
2023/06/24 07:33:24;;;;;;;4.65;3.25;;;23.70;64.10;;;;;;6215596;22;93090;-71
2023/06/24 07:35:50;;;;;;;4.63;2.70;;;24.60;62.30;;;;;;6215664;22;93417;-73
2023/06/24 07:38:15;;;;;;;3.97;2.40;;;25.50;57.70;;;;;;6216487;22;93534;-72
2023/06/24 07:40:41;;;;;;;4.38;2.92;;;25.60;57.10;;;;;;6215728;22;93046;-73
2023/06/24 07:43:07;;;;;;;4.57;2.95;;;25.10;57.50;;;;;;6215389;22;92830;-73
2023/06/24 07:45:32;;;;;;;6.00;3.33;;;25.30;58.50;;;;;;6216148;22;91966;-71
2023/06/24 07:47:58;;;;;;;4.35;2.97;;;26.10;58.20;;;;;;6216089;22;92466;-71
2023/06/24 07:50:24;;;;;;;5.38;3.53;;;26.80;56.40;;;;;;6215574;22;93059;-72
2023/06/24 07:52:50;;;;;;;7.05;4.22;;;29.40;54.30;;;;;;6216169;22;93168;-72
2023/06/24 07:55:15;;;;;;;4.40;3.72;;;31.90;49.90;;;;;;6215828;22;92054;-72
2023/06/24 07:57:45;;;;;;;5.90;4.03;;;34.00;46.90;;;;;;6216533;22;92434;-77
2023/06/24 08:00:12;;;;;;;8.27;5.72;;;36.00;43.80;;;;;;6187935;22;95360;-74
2023/06/24 08:02:37;;;;;;;9.15;5.40;;;37.60;44.10;;;;;;6215384;22;93009;-73
2023/06/24 08:05:03;;;;;;;8.90;6.57;;;38.10;41.20;;;;;;6216019;22;92399;-73
2023/06/24 08:07:29;;;;;;;6.05;5.35;;;38.60;40.00;;;;;;6216281;22;92101;-72
2023/06/24 08:09:55;;;;;;;6.68;5.15;;;39.30;38.80;;;;;;6215333;22;92667;-74
2023/06/24 08:12:21;;;;;;;6.82;5.97;;;39.20;38.70;;;;;;6215366;22;92288;-75
2023/06/24 08:14:46;;;;;;;8.13;7.32;;;39.70;38.10;;;;;;6215786;22;92291;-73
2023/06/24 08:17:12;;;;;;;10.55;7.07;;;40.00;37.10;;;;;;6215727;22;91741;-73
2023/06/24 08:19:37;;;;;;;10.05;6.65;;;40.40;36.60;;;;;;6215560;22;92990;-72
2023/06/24 08:22:04;;;;;;;6.93;4.88;;;39.90;36.30;;;;;;6215325;22;92638;-73
2023/06/24 08:24:29;;;;;;;9.13;6.10;;;40.10;36.50;;;;;;6215486;22;93295;-72
2023/06/24 08:26:55;;;;;;;7.80;7.05;;;40.50;36.00;;;;;;6216322;22;92427;-74
2023/06/24 08:29:21;;;;;;;8.55;7.72;;;41.40;36.40;;;;;;6215125;22;93106;-74
2023/06/24 08:31:46;;;;;;;8.05;7.32;;;41.70;34.90;;;;;;6215587;22;92698;-73
2023/06/24 08:34:12;;;;;;;8.10;7.40;;;40.90;35.50;;;;;;6214656;22;92613;-72
2023/06/24 08:36:38;;;;;;;11.80;8.38;;;40.40;35.20;;;;;;6215957;22;92413;-71
2023/06/24 08:39:03;;;;;;;9.45;7.22;;;40.30;35.60;;;;;;6215479;22;93793;-71
2023/06/24 08:41:29;;;;;;;9.90;8.88;;;40.50;37.30;;;;;;6215568;22;92276;-72
2023/06/24 08:43:55;;;;;;;8.90;7.97;;;41.00;35.50;;;;;;6215920;22;92254;-72
2023/06/24 08:46:22;;;;;;;11.50;6.95;;;41.50;35.30;;;;;;6215764;22;92373;-72
2023/06/24 08:48:52;;;;;;;9.30;8.40;;;41.70;34.90;;;;;;6214680;22;94406;-73
2023/06/24 08:51:21;;;;;;;7.53;6.80;;;41.50;34.80;;;;;;6215068;22;93789;-73
2023/06/24 08:53:48;;;;;;;8.57;7.78;;;41.40;34.60;;;;;;6215888;22;92304;-72
2023/06/24 08:56:15;;;;;;;8.93;7.78;;;42.00;35.50;;;;;;6215246;22;92427;-73
2023/06/24 08:58:41;;;;;;;8.05;7.28;;;42.90;35.80;;;;;;6215448;22;92784;-71
2023/06/24 09:01:07;;;;;;;10.07;9.07;;;43.70;34.60;;;;;;6215051;22;93327;-74
2023/06/24 09:03:32;;;;;;;8.57;7.88;;;43.90;34.20;;;;;;6215484;22;92341;-73
2023/06/24 09:05:58;;;;;;;9.68;8.70;;;44.40;34.50;;;;;;6216569;22;91916;-73
2023/06/24 09:08:24;;;;;;;8.68;7.88;;;44.90;32.50;;;;;;6214740;22;93096;-74
2023/06/24 09:10:56;;;;;;;9.18;8.27;;;45.20;33.20;;;;;;6214925;22;92569;-72
2023/06/24 09:13:27;;;;;;;9.07;8.18;;;45.10;32.40;;;;;;6187741;22;93501;-73
2023/06/24 09:15:53;;;;;;;9.45;8.55;;;45.20;32.40;;;;;;6215672;22;92796;-74
2023/06/24 09:18:18;;;;;;;9.15;8.05;;;45.50;32.00;;;;;;6214280;22;94052;-74
2023/06/24 09:20:49;;;;;;;7.30;6.60;;;45.20;31.70;;;;;;6214835;22;92311;-73
2023/06/24 09:23:16;;;;;;;11.55;8.85;;;45.10;33.40;;;;;;6215391;22;92400;-73
2023/06/24 09:25:42;;;;;;;9.23;8.27;;;45.40;32.00;;;;;;6215683;22;92300;-73
2023/06/24 09:28:08;;;;;;;10.23;9.23;;;45.90;32.40;;;;;;6215067;22;92894;-73
2023/06/24 09:30:33;;;;;;;8.63;7.93;;;46.30;31.50;;;;;;6214734;22;92083;-73
2023/06/24 09:32:59;;;;;;;8.00;7.40;;;46.20;29.70;;;;;;6215323;22;92486;-72
2023/06/24 09:35:26;;;;;;;8.20;7.53;;;45.70;29.90;;;;;;6215419;22;92278;-75
2023/06/24 09:37:56;;;;;;;8.35;7.55;;;45.50;30.60;;;;;;6214144;22;94982;-72
2023/06/24 09:40:22;;;;;;;9.68;8.35;;;45.60;32.00;;;;;;6214832;22;94355;-73
2023/06/24 09:42:52;;;;;;;9.73;8.75;;;46.00;30.70;;;;;;6215151;22;92667;-72
2023/06/24 09:45:29;;;;;;;7.70;7.07;;;45.60;30.30;;;;;;6215737;22;92138;-74
2023/06/24 09:47:56;;;;;;;5.50;5.00;;;45.80;30.00;;;;;;6216108;22;92557;-72
2023/06/24 09:50:22;;;;;;;7.75;7.15;;;46.10;32.00;;;;;;6215943;22;92832;-71
2023/06/24 09:52:49;;;;;;;7.72;7.00;;;46.20;30.00;;;;;;6216390;22;92363;-73
2023/06/24 09:55:17;;;;;;;8.55;7.68;;;46.10;30.50;;;;;;6216899;22;91249;-71
2023/06/24 09:57:49;;;;;;;11.38;8.00;;;45.60;30.80;;;;;;6216230;22;92343;-74
2023/06/24 10:00:18;;;;;;;7.32;6.72;;;45.30;32.10;;;;;;6215756;22;93239;-72
2023/06/24 10:02:45;;;;;;;6.65;6.05;;;43.90;30.00;;;;;;6215939;22;93443;-73
2023/06/24 10:05:12;;;;;;;5.55;4.78;;;42.80;32.30;;;;;;6216537;22;92650;-73
2023/06/24 10:07:39;;;;;;;5.30;4.90;;;42.00;33.10;;;;;;6188873;22;93318;-72
2023/06/24 10:10:06;;;;;;;5.30;3.92;;;40.00;33.80;;;;;;6215767;22;93433;-73
2023/06/24 10:12:33;;;;;;;4.50;2.28;;;38.70;35.60;;;;;;6216887;22;92171;-71
2023/06/24 10:15:00;;;;;;;4.65;3.63;;;37.40;36.10;;;;;;6216325;22;92303;-72
2023/06/24 10:17:26;;;;;;;4.97;3.85;;;36.70;36.80;;;;;;6215384;22;93065;-70
2023/06/24 10:19:56;;;;;;;3.20;2.88;;;35.80;38.80;;;;;;6216217;22;92710;-72
2023/06/24 10:22:25;;;;;;;3.33;2.95;;;34.90;39.20;;;;;;6216263;22;92041;-72
2023/06/24 10:24:52;;;;;;;3.17;2.58;;;34.00;40.90;;;;;;6216779;22;92804;-71
2023/06/24 10:27:24;;;;;;;4.85;2.58;;;33.40;40.00;;;;;;6215462;22;93831;-71
2023/06/24 10:29:52;;;;;;;3.00;2.63;;;33.00;40.40;;;;;;6216121;22;93213;-70
2023/06/24 10:32:19;;;;;;;2.90;2.60;;;32.20;37.10;;;;;;6216305;22;92264;-71
2023/06/24 10:34:46;;;;;;;2.90;2.40;;;31.80;42.30;;;;;;6216450;22;92537;-74
2023/06/24 10:37:11;;;;;;;3.40;2.35;;;31.30;42.70;;;;;;6215738;22;93052;-71
2023/06/24 10:39:54;;;;;;;3.38;2.17;;;31.00;42.20;;;;;;6215793;22;92537;-70
2023/06/24 10:42:42;;;;;;;2.88;1.88;;;30.50;44.40;;;;;;6216084;22;92461;-70
2023/06/24 10:45:19;;;;;;;2.72;2.00;;;30.30;45.90;;;;;;6217051;22;91719;-72
2023/06/24 10:47:50;;;;;;;2.45;1.75;;;30.30;44.70;;;;;;6215698;22;93578;-72
2023/06/24 10:50:20;;;;;;;4.55;1.92;;;30.40;43.80;;;;;;6215621;22;92985;-72
2023/06/24 10:52:57;;;;;;;4.32;1.90;;;30.20;43.80;;;;;;6215342;22;93195;-71
2023/06/24 10:55:27;;;;;;;2.78;2.10;;;30.10;45.40;;;;;;6216486;22;92387;-69
2023/06/24 10:57:53;;;;;;;3.58;1.98;;;30.00;45.80;;;;;;6215533;22;92406;-72
2023/06/24 11:00:20;;;;;;;6.50;2.35;;;29.80;45.10;;;;;;6216199;22;92431;-73
2023/06/24 11:02:46;;;;;;;4.15;2.30;;;29.80;44.70;;;;;;6215882;22;92559;-70
2023/06/24 11:05:12;;;;;;;3.05;2.03;;;29.80;45.90;;;;;;6216567;22;92353;-74
2023/06/24 11:07:38;;;;;;;2.80;2.08;;;29.80;45.40;;;;;;6216100;22;92334;-73
2023/06/24 11:10:07;;;;;;;4.47;2.35;;;29.90;46.20;;;;;;6215959;22;92138;-70
2023/06/24 11:12:35;;;;;;;3.80;2.10;;;29.90;44.70;;;;;;6216236;22;92304;-70
2023/06/24 11:15:20;;;;;;;3.70;1.75;;;29.70;46.00;;;;;;6216427;22;91906;-72
2023/06/24 11:17:46;;;;;;;2.80;1.98;;;29.60;45.80;;;;;;6214748;22;93952;-74
2023/06/24 11:20:13;;;;;;;3.28;1.75;;;29.60;46.40;;;;;;6215350;22;93167;-70
2023/06/24 11:22:43;;;;;;;5.18;2.22;;;29.60;46.70;;;;;;6216703;22;92728;-73
2023/06/24 11:25:16;;;;;;;4.35;2.38;;;29.70;48.10;;;;;;6215988;22;92386;-71
2023/06/24 11:27:42;;;;;;;3.70;2.17;;;29.60;47.70;;;;;;6215872;22;93526;-72
2023/06/24 11:30:08;;;;;;;4.15;2.17;;;29.70;48.00;;;;;;6215456;22;92357;-73
2023/06/24 11:32:41;;;;;;;2.58;2.05;;;29.60;46.90;;;;;;6215990;22;92532;-72
2023/06/24 11:35:12;;;;;;;5.25;2.28;;;29.30;50.10;;;;;;6216519;22;91662;-73
2023/06/24 11:37:42;;;;;;;5.28;1.73;;;29.40;48.00;;;;;;6216000;22;92546;-71
2023/06/24 11:40:09;;;;;;;3.63;1.33;;;29.40;47.30;;;;;;6215348;22;93105;-73
2023/06/24 11:42:40;;;;;;;3.30;2.25;;;29.50;45.30;;;;;;6215964;22;93313;-70
2023/06/24 11:45:10;;;;;;;3.88;2.05;;;29.40;45.20;;;;;;6216545;22;92460;-73
2023/06/24 11:47:38;;;;;;;4.10;1.92;;;29.40;45.50;;;;;;6215692;22;92425;-70
2023/06/24 11:50:05;;;;;;;3.50;1.95;;;29.30;41.70;;;;;;6215753;22;93677;-70
2023/06/24 11:52:49;;;;;;;3.03;1.65;;;29.10;45.40;;;;;;6216027;22;92022;-72
2023/06/24 11:55:20;;;;;;;3.08;2.10;;;29.00;45.30;;;;;;6216360;22;92423;-71
2023/06/24 11:58:04;;;;;;;3.13;1.88;;;29.10;42.90;;;;;;6215711;22;93238;-70
2023/06/24 12:00:39;;;;;;;4.00;2.47;;;29.20;46.30;;;;;;6216413;22;91970;-71
2023/06/24 12:03:09;;;;;;;3.50;2.17;;;29.40;44.90;;;;;;6188924;22;92460;-71
2023/06/24 12:05:37;;;;;;;3.10;2.40;;;29.30;44.30;;;;;;6216555;22;92395;-73
2023/06/24 12:08:07;;;;;;;4.15;2.05;;;29.30;44.30;;;;;;6214555;22;94981;-69
2023/06/24 12:10:34;;;;;;;3.47;2.05;;;29.50;42.70;;;;;;6214576;22;93685;-71
2023/06/24 12:13:00;;;;;;;8.95;2.13;;;29.50;44.60;;;;;;6216142;22;92458;-72
2023/06/24 12:15:27;;;;;;;3.30;1.95;;;29.20;41.50;;;;;;6216144;22;92060;-71
2023/06/24 12:17:53;;;;;;;3.65;1.70;;;29.10;41.60;;;;;;6214746;22;92326;-72
2023/06/24 12:20:19;;;;;;;3.13;1.90;;;29.10;43.60;;;;;;6215302;22;93176;-71
2023/06/24 12:22:46;;;;;;;2.45;1.67;;;29.00;42.50;;;;;;6215556;22;92358;-72
2023/06/24 12:25:12;;;;;;;2.95;1.75;;;28.90;41.70;;;;;;6216394;22;91826;-74
2023/06/24 12:27:38;;;;;;;2.63;1.77;;;28.90;42.00;;;;;;6215379;22;93183;-71
2023/06/24 12:30:04;;;;;;;4.47;1.75;;;28.90;44.70;;;;;;6214661;22;93102;-70
2023/06/24 12:32:30;;;;;;;3.25;1.95;;;29.10;44.40;;;;;;6215633;22;92929;-72
2023/06/24 12:34:56;;;;;;;5.97;2.13;;;28.90;44.40;;;;;;6215473;22;92516;-74
2023/06/24 12:37:22;;;;;;;2.47;1.98;;;28.90;43.00;;;;;;6215303;22;93155;-70
2023/06/24 12:39:50;;;;;;;2.47;1.83;;;28.80;41.80;;;;;;6215694;22;92529;-71
2023/06/24 12:42:16;;;;;;;4.88;1.77;;;28.70;43.10;;;;;;6215462;22;92035;-70
2023/06/24 12:44:42;;;;;;;3.70;2.20;;;28.70;43.80;;;;;;6216281;22;92060;-72
2023/06/24 12:47:07;;;;;;;3.88;1.80;;;28.80;42.90;;;;;;6215098;22;92954;-70
2023/06/24 12:49:33;;;;;;;3.85;2.53;;;28.80;45.10;;;;;;6215517;22;92763;-70
2023/06/24 12:51:59;;;;;;;2.75;1.70;;;29.00;44.20;;;;;;6215742;22;92129;-70
2023/06/24 12:54:24;;;;;;;4.95;2.03;;;29.00;44.00;;;;;;6215944;22;92357;-70
2023/06/24 12:56:50;;;;;;;3.50;1.80;;;29.10;44.80;;;;;;6214659;22;94037;-70
2023/06/24 12:59:15;;;;;;;3.88;2.10;;;29.20;44.00;;;;;;6215536;22;94531;-73
2023/06/24 13:01:44;;;;;;;3.67;2.22;;;29.20;42.80;;;;;;6215631;22;92327;-72
2023/06/24 13:04:10;;;;;;;2.75;1.77;;;29.20;45.10;;;;;;6215008;22;92341;-73
2023/06/24 13:06:36;;;;;;;2.97;1.88;;;29.20;42.50;;;;;;6215045;22;93216;-70
2023/06/24 13:09:02;;;;;;;2.42;1.83;;;29.20;44.70;;;;;;6215069;22;92446;-72
2023/06/24 13:11:28;;;;;;;2.92;1.80;;;29.10;43.20;;;;;;6215200;22;92282;-71
2023/06/24 13:13:54;;;;;;;3.65;1.77;;;29.00;44.20;;;;;;6215937;22;91581;-72
2023/06/24 13:16:20;;;;;;;3.70;1.95;;;29.00;45.00;;;;;;6212205;22;93515;-70
2023/06/24 13:18:45;;;;;;;3.22;1.77;;;29.20;45.60;;;;;;6212770;22;92301;-71
2023/06/24 13:21:11;;;;;;;3.97;1.80;;;29.10;41.80;;;;;;6215711;22;93327;-72
2023/06/24 13:23:38;;;;;;;3.20;1.75;;;29.10;43.70;;;;;;6217006;22;92327;-73
2023/06/24 13:26:04;;;;;;;3.45;1.98;;;29.20;43.00;;;;;;6216214;22;92494;-71
2023/06/24 13:28:31;;;;;;;3.40;1.83;;;29.20;40.50;;;;;;6216067;22;92690;-70
2023/06/24 13:30:57;;;;;;;2.55;1.70;;;29.10;42.70;;;;;;6217070;22;92175;-70
2023/06/24 13:33:23;;;;;;;3.60;2.35;;;29.00;41.90;;;;;;6217157;22;92331;-72
2023/06/24 13:35:51;;;;;;;2.63;1.85;;;28.90;43.30;;;;;;6188750;22;93436;-70
2023/06/24 13:38:17;;;;;;;3.35;2.28;;;29.00;41.80;;;;;;6216659;22;93296;-72
2023/06/24 13:40:43;;;;;;;2.60;1.48;;;28.90;42.10;;;;;;6216828;22;92060;-71
2023/06/24 13:43:08;;;;;;;3.35;1.90;;;28.80;43.60;;;;;;6217139;22;92394;-69
2023/06/24 13:45:34;;;;;;;6.38;2.00;;;28.90;41.70;;;;;;6215021;22;93522;-71
2023/06/24 13:48:00;;;;;;;3.65;2.33;;;28.90;42.60;;;;;;6216078;22;93784;-71
2023/06/24 13:50:25;;;;;;;4.53;2.40;;;28.80;41.80;;;;;;6216743;22;92414;-69
2023/06/24 13:52:51;;;;;;;2.63;1.70;;;28.90;42.60;;;;;;6216856;22;92283;-72
2023/06/24 13:55:17;;;;;;;5.38;2.13;;;28.80;41.70;;;;;;6216117;22;93605;-70
2023/06/24 13:57:42;;;;;;;3.80;2.00;;;28.80;43.80;;;;;;6215937;22;92821;-71
2023/06/24 14:00:09;;;;;;;3.13;1.83;;;28.80;44.00;;;;;;6217068;22;92457;-70
2023/06/24 14:02:35;;;;;;;2.63;1.58;;;28.60;42.60;;;;;;6216954;22;91571;-70
2023/06/24 14:05:01;;;;;;;3.70;1.52;;;28.60;42.80;;;;;;6215587;22;92512;-73
2023/06/24 14:07:26;;;;;;;3.17;1.60;;;28.60;42.70;;;;;;6216230;22;92534;-70
2023/06/24 14:09:52;;;;;;;4.72;2.70;;;28.50;41.90;;;;;;6216018;22;93251;-73
2023/06/24 14:12:18;;;;;;;2.20;1.48;;;28.50;43.00;;;;;;6216617;22;92003;-71
2023/06/24 14:14:43;;;;;;;4.13;1.80;;;28.70;44.60;;;;;;6215805;22;93091;-74
2023/06/24 14:17:11;;;;;;;5.28;2.05;;;28.70;42.50;;;;;;6216426;22;93058;-72
2023/06/24 14:19:40;;;;;;;6.50;2.13;;;28.80;43.40;;;;;;6216200;22;92417;-72
2023/06/24 14:22:07;;;;;;;2.83;1.98;;;28.70;42.50;;;;;;6216973;22;92374;-70
2023/06/24 14:24:33;;;;;;;2.65;1.65;;;28.60;42.90;;;;;;6215670;22;92629;-71
2023/06/24 14:26:59;;;;;;;4.63;2.03;;;28.50;45.20;;;;;;6216561;22;92660;-71
2023/06/24 14:29:25;;;;;;;3.92;2.33;;;28.60;44.20;;;;;;6216167;22;92151;-71
2023/06/24 14:31:51;;;;;;;3.17;2.25;;;28.50;44.20;;;;;;6216100;22;92256;-70
2023/06/24 14:34:17;;;;;;;3.13;1.83;;;28.40;43.80;;;;;;6214694;22;93666;-70
2023/06/24 14:36:43;;;;;;;3.22;2.20;;;28.30;42.90;;;;;;6215938;22;93793;-71
2023/06/24 14:39:09;;;;;;;4.43;2.20;;;28.30;44.00;;;;;;6216424;22;92025;-70
2023/06/24 14:41:34;;;;;;;3.58;1.88;;;28.30;42.30;;;;;;6216804;22;92062;-71
2023/06/24 14:44:00;;;;;;;2.97;2.00;;;28.30;44.80;;;;;;6215179;22;92567;-71
2023/06/24 14:46:26;;;;;;;4.13;2.38;;;28.30;42.50;;;;;;6216243;22;92618;-72
2023/06/24 14:48:51;;;;;;;4.53;2.42;;;28.30;42.30;;;;;;6215822;22;92451;-70
2023/06/24 14:51:17;;;;;;;8.27;2.63;;;28.20;42.50;;;;;;6217116;22;91679;-71
2023/06/24 14:53:43;;;;;;;2.95;1.77;;;28.20;42.60;;;;;;6216214;22;93482;-69
2023/06/24 14:56:08;;;;;;;3.97;2.00;;;28.30;43.50;;;;;;6188631;22;96548;-71
2023/06/24 14:58:34;;;;;;;3.03;2.10;;;28.20;42.30;;;;;;6215809;22;93274;-71
2023/06/24 15:01:00;;;;;;;2.80;1.90;;;28.10;41.70;;;;;;6216067;22;92321;-71
2023/06/24 15:03:25;;;;;;;4.13;2.30;;;28.10;41.80;;;;;;6215259;22;94329;-70
2023/06/24 15:05:51;;;;;;;3.10;1.92;;;28.10;42.60;;;;;;6215735;22;92339;-70
2023/06/24 15:08:17;;;;;;;4.35;1.95;;;28.20;42.80;;;;;;6216166;22;92281;-70
2023/06/24 15:10:43;;;;;;;3.50;2.28;;;28.20;42.40;;;;;;6216508;22;92334;-70
2023/06/24 15:13:09;;;;;;;3.47;2.08;;;28.30;43.10;;;;;;6215514;22;93909;-73
2023/06/24 15:15:35;;;;;;;6.07;1.83;;;28.20;44.40;;;;;;6215792;22;93187;-72
2023/06/24 15:18:00;;;;;;;3.55;1.85;;;28.20;43.40;;;;;;6215600;22;92515;-74
2023/06/24 15:20:26;;;;;;;7.57;2.35;;;28.30;43.80;;;;;;6216556;22;92381;-70
2023/06/24 15:22:52;;;;;;;3.47;2.13;;;28.30;44.30;;;;;;6215469;22;94100;-72
2023/06/24 15:25:17;;;;;;;3.20;1.95;;;28.20;42.60;;;;;;6215422;22;93941;-72
2023/06/24 15:27:43;;;;;;;2.90;1.85;;;28.30;44.30;;;;;;6216711;22;92308;-71
2023/06/24 15:30:09;;;;;;;4.90;2.33;;;28.30;43.80;;;;;;6216244;22;92476;-70
2023/06/24 15:32:35;;;;;;;3.78;2.10;;;28.30;44.50;;;;;;6215904;22;93763;-71
2023/06/24 15:35:03;;;;;;;3.30;1.73;;;28.30;43.90;;;;;;6188933;22;92407;-71
2023/06/24 15:37:29;;;;;;;7.20;2.10;;;28.30;43.70;;;;;;6216244;22;92699;-70
2023/06/24 15:39:55;;;;;;;2.72;1.83;;;28.30;44.60;;;;;;6216919;22;91562;-70
2023/06/24 15:42:21;;;;;;;3.03;1.95;;;28.30;43.80;;;;;;6215572;22;92967;-72
2023/06/24 15:44:46;;;;;;;5.40;2.15;;;28.30;44.40;;;;;;6215537;22;93555;-73
2023/06/24 15:47:12;;;;;;;3.53;2.42;;;28.10;43.90;;;;;;6215426;22;93259;-72
2023/06/24 15:49:38;;;;;;;4.53;2.63;;;28.10;44.60;;;;;;6216421;22;92350;-70
2023/06/24 15:52:04;;;;;;;3.00;2.22;;;28.10;44.00;;;;;;6215461;22;92913;-70
2023/06/24 15:54:29;;;;;;;3.00;1.90;;;28.10;43.70;;;;;;6215883;22;92384;-69
2023/06/24 15:56:55;;;;;;;2.75;1.90;;;28.00;43.50;;;;;;6216068;22;92250;-71
2023/06/24 15:59:20;;;;;;;4.10;1.63;;;28.00;43.50;;;;;;6216518;22;92566;-73